createdAt,value
2019-04-27T00:04:40.357Z,53.00
2019-04-27T00:09:50.136Z,52.90
2019-04-27T00:14:48.313Z,52.80
2019-04-27T00:20:07.440Z,52.80
2019-04-27T00:25:13.125Z,52.90
2019-04-27T00:30:16.859Z,53.00
2019-04-27T00:35:20.403Z,53.20
2019-04-27T00:40:29.549Z,53.30
2019-04-27T00:45:31.332Z,53.50
2019-04-27T00:50:35.778Z,53.50
2019-04-27T00:55:39.164Z,53.70
2019-04-27T01:01:00.310Z,53.80
2019-04-27T01:06:04.324Z,54.00
2019-04-27T01:11:06.036Z,54.10
2019-04-27T01:16:08.617Z,54.20
2019-04-27T01:21:13.508Z,54.30
2019-04-27T01:26:33.595Z,54.30
2019-04-27T01:31:35.301Z,54.40
2019-04-27T01:36:36.620Z,54.40
2019-04-27T01:41:39.178Z,54.40
2019-04-27T01:46:42.659Z,54.50
2019-04-27T01:51:44.205Z,54.50
2019-04-27T01:56:47.141Z,54.60
2019-04-27T02:02:06.577Z,54.70
2019-04-27T02:07:14.263Z,54.70
2019-04-27T02:12:15.941Z,54.70
2019-04-27T02:17:18.742Z,54.80
2019-04-27T02:22:26.135Z,55.10
2019-04-27T02:27:29.544Z,55.40
2019-04-27T02:32:39.980Z,55.70
2019-04-27T02:37:41.590Z,55.80
2019-04-27T02:42:46.838Z,55.90
2019-04-27T02:47:49.064Z,56.10
2019-04-27T02:52:53.711Z,56.20
2019-04-27T02:57:59.722Z,56.30
2019-04-27T03:03:05.778Z,56.30
2019-04-27T03:08:12.871Z,56.40
2019-04-27T03:13:22.308Z,56.50
2019-04-27T03:18:32.124Z,56.60
2019-04-27T03:23:31.708Z,56.80
2019-04-27T03:28:33.307Z,56.80
2019-04-27T03:33:34.963Z,56.90
2019-04-27T03:38:36.442Z,56.90
2019-04-27T03:43:40.209Z,57.00
2019-04-27T03:48:44.096Z,57.00
2019-04-27T03:54:10.738Z,57.10
2019-04-27T03:59:22.982Z,57.20
2019-04-27T04:04:26.684Z,57.10
2019-04-27T04:09:30.263Z,57.20
2019-04-27T04:14:31.987Z,57.20
2019-04-27T04:19:47.694Z,57.20
2019-04-27T04:24:39.629Z,57.40
2019-04-27T04:29:43.102Z,57.60
2019-04-27T04:34:44.521Z,57.90
2019-04-27T04:39:52.678Z,58.20
2019-04-27T04:45:00.402Z,58.40
2019-04-27T04:50:11.160Z,58.70
2019-04-27T04:55:14.716Z,58.80
2019-04-27T05:00:16.482Z,58.90
2019-04-27T05:05:19.353Z,58.90
2019-04-27T05:10:23.109Z,59.10
2019-04-27T05:15:24.548Z,59.20
2019-04-27T05:20:29.488Z,59.30
2019-04-27T05:25:31.236Z,59.30
2019-04-27T05:30:35.757Z,59.50
2019-04-27T05:35:38.761Z,59.50
2019-04-27T05:40:41.558Z,59.50
2019-04-27T05:46:29.765Z,59.50
2019-04-27T05:51:36.921Z,59.50
2019-04-27T05:56:39.005Z,59.50
2019-04-27T06:01:40.815Z,59.60
2019-04-27T06:06:43.175Z,59.80
2019-04-27T06:11:44.481Z,60.00
2019-04-27T06:16:47.045Z,60.30
2019-04-27T06:21:50.063Z,60.60
2019-04-27T06:26:51.573Z,60.70
2019-04-27T06:31:53.008Z,60.90
2019-04-27T06:36:54.477Z,60.80
2019-04-27T06:41:55.940Z,60.80
2019-04-27T06:46:59.018Z,61.50
2019-04-27T06:52:00.743Z,60.90
2019-04-27T06:57:03.239Z,60.90
2019-04-27T07:02:04.713Z,60.90
2019-04-27T07:07:07.326Z,61.00
2019-04-27T07:12:10.544Z,61.00
2019-04-27T07:17:12.202Z,60.80
2019-04-27T07:22:15.975Z,60.50
2019-04-27T07:27:21.284Z,59.50
2019-04-27T07:32:23.698Z,59.60
2019-04-27T07:37:29.407Z,59.70
2019-04-27T07:42:32.262Z,59.10
2019-04-27T07:47:33.840Z,59.10
2019-04-27T07:52:38.027Z,59.50
2019-04-27T07:57:40.793Z,59.50
2019-04-27T08:02:45.436Z,59.50
2019-04-27T08:07:52.587Z,59.50
2019-04-27T08:12:54.010Z,59.00
2019-04-27T08:17:59.191Z,59.10
2019-04-27T08:23:02.931Z,59.10
2019-04-27T08:28:21.352Z,60.10
2019-04-27T08:33:22.713Z,61.30
2019-04-27T08:38:24.040Z,62.10
2019-04-27T08:43:34.329Z,62.20
2019-04-27T08:48:37.039Z,61.60
2019-04-27T08:53:39.796Z,61.00
2019-04-27T08:58:42.365Z,60.50
2019-04-27T09:03:46.905Z,60.00
2019-04-27T09:08:56.160Z,59.50
2019-04-27T09:14:03.255Z,59.20
2019-04-27T09:19:12.299Z,58.90
2019-04-27T09:24:13.600Z,58.60
2019-04-27T09:29:15.156Z,58.50
2019-04-27T09:34:16.893Z,58.20
2019-04-27T09:39:18.436Z,57.10
2019-04-27T09:44:19.980Z,56.30
2019-04-27T09:49:27.083Z,55.80
2019-04-27T09:54:28.392Z,54.90
2019-04-27T09:59:32.907Z,55.00
2019-04-27T10:04:35.582Z,56.00
2019-04-27T10:09:39.243Z,56.90
2019-04-27T10:14:40.715Z,56.20
2019-04-27T10:19:42.184Z,55.40
2019-04-27T10:24:43.538Z,54.60
2019-04-27T10:29:46.757Z,54.10
2019-04-27T10:34:48.440Z,53.90
2019-04-27T10:39:49.917Z,53.10
2019-04-27T10:44:51.236Z,53.60
2019-04-27T10:49:53.827Z,54.00
2019-04-27T10:54:55.630Z,55.00
2019-04-27T11:00:08.664Z,56.10
2019-04-27T11:05:15.222Z,57.20
2019-04-27T11:10:19.433Z,57.60
2019-04-27T11:15:21.910Z,57.80
2019-04-27T11:20:27.549Z,57.00
2019-04-27T11:25:29.913Z,56.10
2019-04-27T11:30:31.672Z,55.00
2019-04-27T11:35:43.825Z,54.50
2019-04-27T11:40:46.666Z,54.30
2019-04-27T11:45:48.464Z,54.40
2019-04-27T11:50:49.841Z,54.20
2019-04-27T11:55:51.373Z,53.10
2019-04-27T12:00:52.776Z,53.20
2019-04-27T12:05:58.057Z,54.10
2019-04-27T12:10:57.895Z,54.60
2019-04-27T12:15:59.368Z,56.80
2019-04-27T12:21:00.922Z,56.90
2019-04-27T12:26:02.909Z,57.50
2019-04-27T12:31:08.737Z,57.30
2019-04-27T12:36:10.083Z,56.70
2019-04-27T12:41:11.755Z,55.30
2019-04-27T12:46:16.011Z,55.50
2019-04-27T12:51:21.081Z,55.80
2019-04-27T12:56:41.416Z,55.40
2019-04-27T13:01:43.075Z,55.40
2019-04-27T13:06:47.094Z,55.40
2019-04-27T13:11:49.673Z,56.80
2019-04-27T13:16:51.146Z,58.20
2019-04-27T13:21:52.800Z,58.80
2019-04-27T13:26:55.950Z,59.30
2019-04-27T13:31:58.369Z,59.20
2019-04-27T13:37:01.730Z,59.00
2019-04-27T13:42:09.261Z,58.50
2019-04-27T13:47:18.608Z,57.40
2019-04-27T13:52:23.536Z,55.70
2019-04-27T13:57:26.583Z,56.20
2019-04-27T14:02:32.326Z,58.10
2019-04-27T14:07:35.666Z,57.90
2019-04-27T14:12:38.596Z,56.30
2019-04-27T14:17:40.441Z,55.90
2019-04-27T14:22:42.855Z,55.20
2019-04-27T14:27:44.326Z,54.40
2019-04-27T14:32:45.825Z,54.80
2019-04-27T14:37:48.403Z,55.10
2019-04-27T14:42:53.378Z,55.70
2019-04-27T14:47:53.885Z,55.80
2019-04-27T14:52:55.378Z,54.60
2019-04-27T14:57:58.546Z,53.90
2019-04-27T15:03:00.161Z,52.90
2019-04-27T15:08:05.529Z,53.40
2019-04-27T15:13:06.538Z,54.40
2019-04-27T15:18:11.624Z,56.60
2019-04-27T15:23:14.226Z,58.40
2019-04-27T15:28:17.723Z,58.30
2019-04-27T15:33:38.890Z,57.50
2019-04-27T15:38:53.666Z,56.80
2019-04-27T15:44:05.683Z,56.40
2019-04-27T15:49:09.759Z,56.30
2019-04-27T15:54:08.464Z,56.60
2019-04-27T15:59:15.715Z,56.60
2019-04-27T16:04:19.067Z,56.80
2019-04-27T16:09:25.526Z,56.80
2019-04-27T16:14:25.800Z,56.40
2019-04-27T16:19:28.709Z,55.90
2019-04-27T16:24:31.319Z,55.80
2019-04-27T16:29:33.876Z,55.60
2019-04-27T16:34:39.598Z,55.50
2019-04-27T16:39:45.689Z,55.30
2019-04-27T16:44:49.461Z,55.20
2019-04-27T16:49:49.783Z,55.00
2019-04-27T16:54:57.741Z,54.80
2019-04-27T17:00:00.903Z,55.40
2019-04-27T17:05:01.811Z,55.20
2019-04-27T17:10:04.989Z,54.60
2019-04-27T17:15:26.370Z,54.20
2019-04-27T17:20:29.914Z,54.00
2019-04-27T17:25:39.064Z,54.10
2019-04-27T17:30:39.812Z,54.30
2019-04-27T17:35:42.704Z,54.30
2019-04-27T17:40:43.476Z,54.30
2019-04-27T17:45:45.176Z,54.30
2019-04-27T17:50:46.808Z,54.30
2019-04-27T17:55:54.964Z,54.10
2019-04-27T18:00:55.271Z,53.90
2019-04-27T18:05:58.210Z,53.90
2019-04-27T18:11:03.021Z,53.80
2019-04-27T18:16:03.110Z,53.80
2019-04-27T18:21:04.612Z,53.90
2019-04-27T18:26:17.628Z,54.10
2019-04-27T18:31:22.217Z,54.20
2019-04-27T18:36:23.686Z,54.30
2019-04-27T18:41:25.807Z,54.20
2019-04-27T18:46:33.147Z,54.20
2019-04-27T18:51:40.476Z,54.20
2019-04-27T18:56:43.867Z,54.20
2019-04-27T19:01:48.961Z,54.20
2019-04-27T19:06:50.858Z,54.20
2019-04-27T19:11:55.986Z,54.30
2019-04-27T19:16:55.572Z,54.30
2019-04-27T19:21:58.888Z,54.40
2019-04-27T19:27:17.620Z,54.40
2019-04-27T19:32:11.840Z,54.40
2019-04-27T19:37:13.227Z,54.40
2019-04-27T19:42:20.264Z,54.50
2019-04-27T19:47:34.280Z,54.50
2019-04-27T19:52:38.990Z,54.50
2019-04-27T19:57:42.030Z,54.50
2019-04-27T20:02:47.923Z,54.50
2019-04-27T20:07:51.027Z,54.50
2019-04-27T20:12:53.637Z,54.50
2019-04-27T20:17:55.182Z,54.60
2019-04-27T20:23:33.281Z,54.60
2019-04-27T20:28:34.704Z,54.70
2019-04-27T20:33:42.087Z,54.70
2019-04-27T20:38:50.829Z,54.70
2019-04-27T20:43:58.679Z,54.80
2019-04-27T20:49:25.170Z,54.80
2019-04-27T20:54:30.617Z,54.80
2019-04-27T20:59:36.642Z,54.90
2019-04-27T21:05:10.656Z,54.90
2019-04-27T21:10:13.167Z,56.50
2019-04-27T21:15:18.652Z,56.20
2019-04-27T21:20:45.021Z,56.10
2019-04-27T21:25:58.302Z,56.00
2019-04-27T21:31:08.768Z,55.90
2019-04-27T21:36:14.123Z,55.90
2019-04-27T21:41:15.425Z,55.90
2019-04-27T21:46:16.803Z,58.10
2019-04-27T21:51:24.084Z,57.70
2019-04-27T21:56:31.252Z,57.50
2019-04-27T22:01:48.727Z,57.30
2019-04-27T22:07:21.604Z,57.10
2019-04-27T22:12:25.270Z,57.10
2019-04-27T22:17:26.589Z,57.00
2019-04-27T22:22:54.555Z,57.10
2019-04-27T22:28:07.135Z,57.00
2019-04-27T22:33:11.724Z,57.00
2019-04-27T22:38:18.373Z,57.00
2019-04-27T22:43:31.568Z,57.00
2019-04-27T22:48:37.270Z,57.00
2019-04-27T22:54:03.698Z,57.10
2019-04-27T22:59:16.871Z,57.10
2019-04-27T23:04:35.549Z,57.10
2019-04-27T23:09:36.836Z,57.20
2019-04-27T23:14:38.494Z,57.20
2019-04-27T23:19:50.918Z,57.30
2019-04-27T23:25:07.100Z,57.30
2019-04-27T23:30:12.486Z,57.40
2019-04-27T23:35:28.272Z,57.40
2019-04-27T23:40:29.580Z,58.10
2019-04-27T23:45:34.214Z,57.50
2019-04-27T23:50:49.528Z,57.50
2019-04-27T23:56:00.772Z,57.50
